sensor_id;sensor_type;location;lat;lon;timestamp;temperature;humidity
62998;DHT22;55949;52.590;7.330;2023-06-22T00:00:30;21.20;99.90
62998;DHT22;55949;52.590;7.330;2023-06-22T00:01:30;21.20;99.90
62998;DHT22;55949;52.590;7.330;2023-06-22T00:02:31;21.20;99.90
62998;DHT22;55949;52.590;7.330;2023-06-22T00:03:32;21.20;99.90
62998;DHT22;55949;52.590;7.330;2023-06-22T00:04:32;21.10;99.90
62998;DHT22;55949;52.590;7.330;2023-06-22T00:05:33;21.00;99.90
62998;DHT22;55949;52.590;7.330;2023-06-22T00:06:33;21.00;99.90
62998;DHT22;55949;52.590;7.330;2023-06-22T00:07:34;21.00;99.90
62998;DHT22;55949;52.590;7.330;2023-06-22T00:08:34;20.90;99.90
62998;DHT22;55949;52.590;7.330;2023-06-22T00:09:35;21.00;99.90
62998;DHT22;55949;52.590;7.330;2023-06-22T00:10:36;21.00;99.90
62998;DHT22;55949;52.590;7.330;2023-06-22T00:11:37;21.00;99.90
62998;DHT22;55949;52.590;7.330;2023-06-22T00:12:37;21.10;99.90
62998;DHT22;55949;52.590;7.330;2023-06-22T00:13:38;21.10;99.90
62998;DHT22;55949;52.590;7.330;2023-06-22T00:14:39;21.10;99.90
62998;DHT22;55949;52.590;7.330;2023-06-22T00:15:40;21.10;99.90
62998;DHT22;55949;52.590;7.330;2023-06-22T00:16:41;21.10;99.90
62998;DHT22;55949;52.590;7.330;2023-06-22T00:17:43;21.10;99.90
62998;DHT22;55949;52.590;7.330;2023-06-22T00:18:43;21.10;99.90
62998;DHT22;55949;52.590;7.330;2023-06-22T00:19:47;21.10;99.90
62998;DHT22;55949;52.590;7.330;2023-06-22T00:20:48;21.10;99.90
62998;DHT22;55949;52.590;7.330;2023-06-22T00:21:48;21.10;99.90
62998;DHT22;55949;52.590;7.330;2023-06-22T00:22:53;21.10;99.90
62998;DHT22;55949;52.590;7.330;2023-06-22T00:23:54;21.00;99.90
62998;DHT22;55949;52.590;7.330;2023-06-22T00:24:56;21.00;99.90
62998;DHT22;55949;52.590;7.330;2023-06-22T00:25:56;21.00;99.90
62998;DHT22;55949;52.590;7.330;2023-06-22T00:26:57;20.90;99.90
62998;DHT22;55949;52.590;7.330;2023-06-22T00:27:58;20.90;99.90
62998;DHT22;55949;52.590;7.330;2023-06-22T00:28:58;20.90;99.90
62998;DHT22;55949;52.590;7.330;2023-06-22T00:29:59;20.90;99.90
62998;DHT22;55949;52.590;7.330;2023-06-22T00:31:00;20.80;99.90
62998;DHT22;55949;52.590;7.330;2023-06-22T00:32:00;20.80;99.90
62998;DHT22;55949;52.590;7.330;2023-06-22T00:33:01;20.80;99.90
62998;DHT22;55949;52.590;7.330;2023-06-22T00:34:02;20.80;99.90
62998;DHT22;55949;52.590;7.330;2023-06-22T00:35:02;20.80;99.90
62998;DHT22;55949;52.590;7.330;2023-06-22T00:36:03;20.70;99.90
62998;DHT22;55949;52.590;7.330;2023-06-22T00:37:04;20.80;99.90
62998;DHT22;55949;52.590;7.330;2023-06-22T00:38:05;20.70;99.90
62998;DHT22;55949;52.590;7.330;2023-06-22T00:39:05;20.60;99.90
62998;DHT22;55949;52.590;7.330;2023-06-22T00:40:08;20.60;99.90
62998;DHT22;55949;52.590;7.330;2023-06-22T00:41:11;20.60;99.90
62998;DHT22;55949;52.590;7.330;2023-06-22T00:42:11;20.50;99.90
62998;DHT22;55949;52.590;7.330;2023-06-22T00:43:12;20.50;99.90
62998;DHT22;55949;52.590;7.330;2023-06-22T00:44:13;20.50;99.90
62998;DHT22;55949;52.590;7.330;2023-06-22T00:45:13;20.50;99.90
62998;DHT22;55949;52.590;7.330;2023-06-22T00:46:14;20.50;99.90
62998;DHT22;55949;52.590;7.330;2023-06-22T00:47:15;20.50;99.90
62998;DHT22;55949;52.590;7.330;2023-06-22T00:48:16;20.60;99.90
62998;DHT22;55949;52.590;7.330;2023-06-22T00:49:17;20.60;99.90
62998;DHT22;55949;52.590;7.330;2023-06-22T00:50:18;20.60;99.90
62998;DHT22;55949;52.590;7.330;2023-06-22T00:51:21;20.50;99.90
62998;DHT22;55949;52.590;7.330;2023-06-22T00:52:25;20.50;99.90
62998;DHT22;55949;52.590;7.330;2023-06-22T00:53:29;20.60;99.90
62998;DHT22;55949;52.590;7.330;2023-06-22T00:54:30;20.60;99.90
62998;DHT22;55949;52.590;7.330;2023-06-22T00:55:30;20.60;99.90
62998;DHT22;55949;52.590;7.330;2023-06-22T00:56:31;20.60;99.90
62998;DHT22;55949;52.590;7.330;2023-06-22T00:57:32;20.60;99.90
62998;DHT22;55949;52.590;7.330;2023-06-22T00:58:33;20.50;99.90
62998;DHT22;55949;52.590;7.330;2023-06-22T00:59:33;20.60;99.90
62998;DHT22;55949;52.590;7.330;2023-06-22T01:00:34;20.50;99.90
62998;DHT22;55949;52.590;7.330;2023-06-22T01:01:35;20.50;99.90
62998;DHT22;55949;52.590;7.330;2023-06-22T01:02:41;20.60;99.90
62998;DHT22;55949;52.590;7.330;2023-06-22T01:03:41;20.50;99.90
62998;DHT22;55949;52.590;7.330;2023-06-22T01:04:42;20.50;99.90
62998;DHT22;55949;52.590;7.330;2023-06-22T01:05:43;20.40;99.90
62998;DHT22;55949;52.590;7.330;2023-06-22T01:09:17;20.30;99.90
62998;DHT22;55949;52.590;7.330;2023-06-22T01:10:35;20.40;99.90
62998;DHT22;55949;52.590;7.330;2023-06-22T01:11:41;20.40;99.90
62998;DHT22;55949;52.590;7.330;2023-06-22T01:12:48;20.40;99.90
62998;DHT22;55949;52.590;7.330;2023-06-22T01:14:59;20.30;99.90
62998;DHT22;55949;52.590;7.330;2023-06-22T01:16:03;20.20;99.90
62998;DHT22;55949;52.590;7.330;2023-06-22T01:17:04;20.10;99.90
62998;DHT22;55949;52.590;7.330;2023-06-22T01:18:05;20.00;99.90
62998;DHT22;55949;52.590;7.330;2023-06-22T01:19:20;20.00;99.90
62998;DHT22;55949;52.590;7.330;2023-06-22T01:20:26;20.00;99.90
62998;DHT22;55949;52.590;7.330;2023-06-22T01:21:28;20.10;99.90
62998;DHT22;55949;52.590;7.330;2023-06-22T01:22:30;20.00;99.90
62998;DHT22;55949;52.590;7.330;2023-06-22T01:25:46;20.10;99.90
62998;DHT22;55949;52.590;7.330;2023-06-22T01:29:18;19.90;99.90
62998;DHT22;55949;52.590;7.330;2023-06-22T01:30:19;19.90;99.90
62998;DHT22;55949;52.590;7.330;2023-06-22T01:31:23;19.90;99.90
62998;DHT22;55949;52.590;7.330;2023-06-22T01:32:25;19.90;99.90
62998;DHT22;55949;52.590;7.330;2023-06-22T01:33:27;19.80;99.90
62998;DHT22;55949;52.590;7.330;2023-06-22T01:34:28;19.90;99.90
62998;DHT22;55949;52.590;7.330;2023-06-22T01:35:29;19.90;99.90
62998;DHT22;55949;52.590;7.330;2023-06-22T01:36:30;19.90;99.90
62998;DHT22;55949;52.590;7.330;2023-06-22T01:37:31;19.80;99.90
62998;DHT22;55949;52.590;7.330;2023-06-22T01:38:32;19.80;99.90
62998;DHT22;55949;52.590;7.330;2023-06-22T01:39:34;19.80;99.90
62998;DHT22;55949;52.590;7.330;2023-06-22T01:40:35;19.70;99.90
62998;DHT22;55949;52.590;7.330;2023-06-22T01:41:37;19.70;99.90
62998;DHT22;55949;52.590;7.330;2023-06-22T01:42:37;19.70;99.90
62998;DHT22;55949;52.590;7.330;2023-06-22T01:43:38;19.80;99.90
62998;DHT22;55949;52.590;7.330;2023-06-22T01:44:39;19.70;99.90
62998;DHT22;55949;52.590;7.330;2023-06-22T01:45:40;19.70;99.90
62998;DHT22;55949;52.590;7.330;2023-06-22T01:46:41;19.70;99.90
62998;DHT22;55949;52.590;7.330;2023-06-22T01:47:42;19.70;99.90
62998;DHT22;55949;52.590;7.330;2023-06-22T01:48:42;19.80;99.90
62998;DHT22;55949;52.590;7.330;2023-06-22T01:49:43;19.90;99.90
62998;DHT22;55949;52.590;7.330;2023-06-22T01:50:44;19.90;99.90
62998;DHT22;55949;52.590;7.330;2023-06-22T01:51:45;20.00;99.90
62998;DHT22;55949;52.590;7.330;2023-06-22T01:52:45;20.00;99.90
62998;DHT22;55949;52.590;7.330;2023-06-22T01:53:46;20.10;99.90
62998;DHT22;55949;52.590;7.330;2023-06-22T01:54:48;20.10;99.90
62998;DHT22;55949;52.590;7.330;2023-06-22T01:55:48;20.20;99.90
62998;DHT22;55949;52.590;7.330;2023-06-22T01:56:49;20.20;99.90
62998;DHT22;55949;52.590;7.330;2023-06-22T01:57:50;20.20;99.90
62998;DHT22;55949;52.590;7.330;2023-06-22T01:58:55;20.20;99.90
62998;DHT22;55949;52.590;7.330;2023-06-22T01:59:59;20.40;99.90
62998;DHT22;55949;52.590;7.330;2023-06-22T02:01:10;20.50;99.90
62998;DHT22;55949;52.590;7.330;2023-06-22T02:02:11;20.60;99.90
62998;DHT22;55949;52.590;7.330;2023-06-22T02:03:18;20.50;99.90
62998;DHT22;55949;52.590;7.330;2023-06-22T02:04:20;20.60;99.90
62998;DHT22;55949;52.590;7.330;2023-06-22T02:05:22;20.70;99.90
62998;DHT22;55949;52.590;7.330;2023-06-22T02:06:24;20.60;99.90
62998;DHT22;55949;52.590;7.330;2023-06-22T02:07:28;20.50;99.90
62998;DHT22;55949;52.590;7.330;2023-06-22T02:08:30;20.60;99.90
62998;DHT22;55949;52.590;7.330;2023-06-22T02:09:32;20.70;99.90
62998;DHT22;55949;52.590;7.330;2023-06-22T02:10:36;20.80;99.90
62998;DHT22;55949;52.590;7.330;2023-06-22T02:11:37;20.80;99.90
62998;DHT22;55949;52.590;7.330;2023-06-22T02:12:42;20.90;99.90
62998;DHT22;55949;52.590;7.330;2023-06-22T02:13:43;20.60;99.90
62998;DHT22;55949;52.590;7.330;2023-06-22T02:14:45;20.40;99.90
62998;DHT22;55949;52.590;7.330;2023-06-22T02:15:47;20.30;99.90
62998;DHT22;55949;52.590;7.330;2023-06-22T02:16:49;20.40;99.90
62998;DHT22;55949;52.590;7.330;2023-06-22T02:17:50;20.50;99.90
62998;DHT22;55949;52.590;7.330;2023-06-22T02:18:51;20.60;99.90
62998;DHT22;55949;52.590;7.330;2023-06-22T02:19:51;20.60;99.90
62998;DHT22;55949;52.590;7.330;2023-06-22T02:20:52;20.40;99.90
62998;DHT22;55949;52.590;7.330;2023-06-22T02:21:53;20.40;99.90
62998;DHT22;55949;52.590;7.330;2023-06-22T02:22:53;20.30;99.90
62998;DHT22;55949;52.590;7.330;2023-06-22T02:23:54;20.20;99.90
62998;DHT22;55949;52.590;7.330;2023-06-22T02:24:54;20.10;99.90
62998;DHT22;55949;52.590;7.330;2023-06-22T02:25:56;20.00;99.90
62998;DHT22;55949;52.590;7.330;2023-06-22T02:26:57;19.90;99.90
62998;DHT22;55949;52.590;7.330;2023-06-22T02:27:58;19.90;99.90
62998;DHT22;55949;52.590;7.330;2023-06-22T02:28:58;19.90;99.90
62998;DHT22;55949;52.590;7.330;2023-06-22T02:29:59;20.00;99.90
62998;DHT22;55949;52.590;7.330;2023-06-22T02:30:59;19.90;99.90
62998;DHT22;55949;52.590;7.330;2023-06-22T02:32:00;19.90;99.90
62998;DHT22;55949;52.590;7.330;2023-06-22T02:33:01;19.80;99.90
62998;DHT22;55949;52.590;7.330;2023-06-22T02:34:01;19.80;99.90
62998;DHT22;55949;52.590;7.330;2023-06-22T02:35:02;19.80;99.90
62998;DHT22;55949;52.590;7.330;2023-06-22T02:36:06;19.80;99.90
62998;DHT22;55949;52.590;7.330;2023-06-22T02:37:09;19.70;99.90
62998;DHT22;55949;52.590;7.330;2023-06-22T02:38:13;19.70;99.90
62998;DHT22;55949;52.590;7.330;2023-06-22T02:39:13;19.60;99.90
62998;DHT22;55949;52.590;7.330;2023-06-22T02:40:14;19.70;99.90
62998;DHT22;55949;52.590;7.330;2023-06-22T02:41:15;19.70;99.90
62998;DHT22;55949;52.590;7.330;2023-06-22T02:42:19;19.70;99.90
62998;DHT22;55949;52.590;7.330;2023-06-22T02:43:21;19.80;99.90
62998;DHT22;55949;52.590;7.330;2023-06-22T02:44:22;19.80;99.90
62998;DHT22;55949;52.590;7.330;2023-06-22T02:45:22;19.80;99.90
62998;DHT22;55949;52.590;7.330;2023-06-22T02:46:23;19.80;99.90
62998;DHT22;55949;52.590;7.330;2023-06-22T02:47:23;19.90;99.90
62998;DHT22;55949;52.590;7.330;2023-06-22T02:48:24;19.90;99.90
62998;DHT22;55949;52.590;7.330;2023-06-22T02:49:25;20.00;99.90
62998;DHT22;55949;52.590;7.330;2023-06-22T02:50:25;20.10;99.90
62998;DHT22;55949;52.590;7.330;2023-06-22T02:51:26;20.00;99.90
62998;DHT22;55949;52.590;7.330;2023-06-22T02:52:26;20.00;99.90
62998;DHT22;55949;52.590;7.330;2023-06-22T02:53:27;20.10;99.90
62998;DHT22;55949;52.590;7.330;2023-06-22T02:54:27;20.10;99.90
62998;DHT22;55949;52.590;7.330;2023-06-22T02:55:28;20.00;99.90
62998;DHT22;55949;52.590;7.330;2023-06-22T02:56:29;19.90;99.90
62998;DHT22;55949;52.590;7.330;2023-06-22T02:57:30;19.90;99.90
62998;DHT22;55949;52.590;7.330;2023-06-22T02:58:31;20.00;99.90
62998;DHT22;55949;52.590;7.330;2023-06-22T02:59:41;19.80;99.90
62998;DHT22;55949;52.590;7.330;2023-06-22T03:00:42;19.70;99.90
62998;DHT22;55949;52.590;7.330;2023-06-22T03:01:42;19.60;99.90
62998;DHT22;55949;52.590;7.330;2023-06-22T03:02:46;19.60;99.90
62998;DHT22;55949;52.590;7.330;2023-06-22T03:03:48;19.50;99.90
62998;DHT22;55949;52.590;7.330;2023-06-22T03:04:48;19.40;99.90
62998;DHT22;55949;52.590;7.330;2023-06-22T03:05:49;19.30;99.90
62998;DHT22;55949;52.590;7.330;2023-06-22T03:06:51;19.30;99.90
62998;DHT22;55949;52.590;7.330;2023-06-22T03:07:51;19.20;99.90
62998;DHT22;55949;52.590;7.330;2023-06-22T03:08:52;19.20;99.90
62998;DHT22;55949;52.590;7.330;2023-06-22T03:09:53;19.20;99.90
62998;DHT22;55949;52.590;7.330;2023-06-22T03:10:53;19.10;99.90
62998;DHT22;55949;52.590;7.330;2023-06-22T03:11:54;19.20;99.90
62998;DHT22;55949;52.590;7.330;2023-06-22T03:12:55;19.30;99.90
62998;DHT22;55949;52.590;7.330;2023-06-22T03:13:55;19.40;99.90
62998;DHT22;55949;52.590;7.330;2023-06-22T03:14:56;19.50;99.90
62998;DHT22;55949;52.590;7.330;2023-06-22T03:15:57;19.50;99.90
62998;DHT22;55949;52.590;7.330;2023-06-22T03:16:57;19.60;99.90
62998;DHT22;55949;52.590;7.330;2023-06-22T03:18:03;19.60;99.90
62998;DHT22;55949;52.590;7.330;2023-06-22T03:19:03;19.60;99.90
62998;DHT22;55949;52.590;7.330;2023-06-22T03:20:04;19.50;99.90
62998;DHT22;55949;52.590;7.330;2023-06-22T03:21:14;19.50;99.90
62998;DHT22;55949;52.590;7.330;2023-06-22T03:22:15;19.50;99.90
62998;DHT22;55949;52.590;7.330;2023-06-22T03:23:16;19.40;99.90
62998;DHT22;55949;52.590;7.330;2023-06-22T03:24:16;19.40;99.90
62998;DHT22;55949;52.590;7.330;2023-06-22T03:25:17;19.30;99.90
62998;DHT22;55949;52.590;7.330;2023-06-22T03:26:18;19.30;99.90
62998;DHT22;55949;52.590;7.330;2023-06-22T03:27:18;19.30;99.90
62998;DHT22;55949;52.590;7.330;2023-06-22T03:28:19;19.20;99.90
62998;DHT22;55949;52.590;7.330;2023-06-22T03:29:20;19.20;99.90
62998;DHT22;55949;52.590;7.330;2023-06-22T03:30:21;19.20;99.90
62998;DHT22;55949;52.590;7.330;2023-06-22T03:31:22;19.20;99.90
62998;DHT22;55949;52.590;7.330;2023-06-22T03:32:22;19.10;99.90
62998;DHT22;55949;52.590;7.330;2023-06-22T03:33:23;19.10;99.90
62998;DHT22;55949;52.590;7.330;2023-06-22T03:34:24;19.10;99.90
62998;DHT22;55949;52.590;7.330;2023-06-22T03:35:24;19.10;99.90
62998;DHT22;55949;52.590;7.330;2023-06-22T03:36:25;19.00;99.90
62998;DHT22;55949;52.590;7.330;2023-06-22T03:37:26;19.00;99.90
62998;DHT22;55949;52.590;7.330;2023-06-22T03:38:26;19.00;99.90
62998;DHT22;55949;52.590;7.330;2023-06-22T03:39:27;19.00;99.90
62998;DHT22;55949;52.590;7.330;2023-06-22T03:40:27;19.00;99.90
62998;DHT22;55949;52.590;7.330;2023-06-22T03:41:28;18.90;99.90
62998;DHT22;55949;52.590;7.330;2023-06-22T03:42:29;18.90;99.90
62998;DHT22;55949;52.590;7.330;2023-06-22T03:43:29;18.80;99.90
62998;DHT22;55949;52.590;7.330;2023-06-22T03:44:30;18.90;99.90
62998;DHT22;55949;52.590;7.330;2023-06-22T03:45:31;18.90;99.90
62998;DHT22;55949;52.590;7.330;2023-06-22T03:46:31;18.90;99.90
62998;DHT22;55949;52.590;7.330;2023-06-22T03:47:32;18.90;99.90
62998;DHT22;55949;52.590;7.330;2023-06-22T03:48:32;18.90;99.90
62998;DHT22;55949;52.590;7.330;2023-06-22T03:49:33;18.90;99.90
62998;DHT22;55949;52.590;7.330;2023-06-22T03:50:34;18.90;99.90
62998;DHT22;55949;52.590;7.330;2023-06-22T03:51:35;18.90;99.90
62998;DHT22;55949;52.590;7.330;2023-06-22T03:52:35;18.90;99.90
62998;DHT22;55949;52.590;7.330;2023-06-22T03:53:36;18.90;99.90
62998;DHT22;55949;52.590;7.330;2023-06-22T03:54:37;18.90;99.90
62998;DHT22;55949;52.590;7.330;2023-06-22T03:55:40;18.90;99.90
62998;DHT22;55949;52.590;7.330;2023-06-22T03:56:40;18.90;99.90
62998;DHT22;55949;52.590;7.330;2023-06-22T03:57:41;18.90;99.90
62998;DHT22;55949;52.590;7.330;2023-06-22T03:58:41;18.90;99.90
62998;DHT22;55949;52.590;7.330;2023-06-22T03:59:45;18.90;99.90
62998;DHT22;55949;52.590;7.330;2023-06-22T04:00:46;19.00;99.90
62998;DHT22;55949;52.590;7.330;2023-06-22T04:01:47;19.00;99.90
62998;DHT22;55949;52.590;7.330;2023-06-22T04:02:47;19.00;99.90
62998;DHT22;55949;52.590;7.330;2023-06-22T04:03:48;19.00;99.90
62998;DHT22;55949;52.590;7.330;2023-06-22T04:04:49;19.00;99.90
62998;DHT22;55949;52.590;7.330;2023-06-22T04:05:50;19.00;99.90
62998;DHT22;55949;52.590;7.330;2023-06-22T04:06:51;19.00;99.90
62998;DHT22;55949;52.590;7.330;2023-06-22T04:07:51;19.00;99.90
62998;DHT22;55949;52.590;7.330;2023-06-22T04:08:52;19.00;99.90
62998;DHT22;55949;52.590;7.330;2023-06-22T04:09:52;19.00;99.90
62998;DHT22;55949;52.590;7.330;2023-06-22T04:10:53;19.00;99.90
62998;DHT22;55949;52.590;7.330;2023-06-22T04:11:54;19.00;99.90
62998;DHT22;55949;52.590;7.330;2023-06-22T04:12:54;19.00;99.90
62998;DHT22;55949;52.590;7.330;2023-06-22T04:13:55;19.00;99.90
62998;DHT22;55949;52.590;7.330;2023-06-22T04:14:56;19.00;99.90
62998;DHT22;55949;52.590;7.330;2023-06-22T04:15:56;19.00;99.90
62998;DHT22;55949;52.590;7.330;2023-06-22T04:16:57;19.10;99.90
62998;DHT22;55949;52.590;7.330;2023-06-22T04:17:58;19.10;99.90
62998;DHT22;55949;52.590;7.330;2023-06-22T04:18:59;19.20;99.90
62998;DHT22;55949;52.590;7.330;2023-06-22T04:19:59;19.20;99.90
62998;DHT22;55949;52.590;7.330;2023-06-22T04:21:00;19.30;99.90
62998;DHT22;55949;52.590;7.330;2023-06-22T04:22:00;19.30;99.90
62998;DHT22;55949;52.590;7.330;2023-06-22T04:23:01;19.30;99.90
62998;DHT22;55949;52.590;7.330;2023-06-22T04:24:02;19.40;99.90
62998;DHT22;55949;52.590;7.330;2023-06-22T04:25:02;19.30;99.90
62998;DHT22;55949;52.590;7.330;2023-06-22T04:26:03;19.30;99.90
62998;DHT22;55949;52.590;7.330;2023-06-22T04:27:04;19.20;99.90
62998;DHT22;55949;52.590;7.330;2023-06-22T04:28:04;19.20;99.90
62998;DHT22;55949;52.590;7.330;2023-06-22T04:29:05;19.20;99.90
62998;DHT22;55949;52.590;7.330;2023-06-22T04:30:06;19.20;99.90
62998;DHT22;55949;52.590;7.330;2023-06-22T04:31:07;19.20;99.90
62998;DHT22;55949;52.590;7.330;2023-06-22T04:32:07;19.30;99.90
62998;DHT22;55949;52.590;7.330;2023-06-22T04:33:08;19.30;99.90
62998;DHT22;55949;52.590;7.330;2023-06-22T04:34:09;19.30;99.90
62998;DHT22;55949;52.590;7.330;2023-06-22T04:35:10;19.40;99.90
62998;DHT22;55949;52.590;7.330;2023-06-22T04:36:11;19.40;99.90
62998;DHT22;55949;52.590;7.330;2023-06-22T04:37:13;19.40;99.90
62998;DHT22;55949;52.590;7.330;2023-06-22T04:38:16;19.40;99.90
62998;DHT22;55949;52.590;7.330;2023-06-22T04:39:17;19.40;99.90
62998;DHT22;55949;52.590;7.330;2023-06-22T04:40:18;19.50;99.90
62998;DHT22;55949;52.590;7.330;2023-06-22T04:41:20;19.50;99.90
62998;DHT22;55949;52.590;7.330;2023-06-22T04:42:26;19.50;99.90
62998;DHT22;55949;52.590;7.330;2023-06-22T04:43:27;19.50;99.90
62998;DHT22;55949;52.590;7.330;2023-06-22T04:44:30;19.60;99.90
62998;DHT22;55949;52.590;7.330;2023-06-22T04:45:31;19.60;99.90
62998;DHT22;55949;52.590;7.330;2023-06-22T04:46:32;19.60;99.90
62998;DHT22;55949;52.590;7.330;2023-06-22T04:47:34;19.60;99.90
62998;DHT22;55949;52.590;7.330;2023-06-22T04:48:34;19.50;99.90
62998;DHT22;55949;52.590;7.330;2023-06-22T04:49:35;19.50;99.90
62998;DHT22;55949;52.590;7.330;2023-06-22T04:50:40;19.50;99.90
62998;DHT22;55949;52.590;7.330;2023-06-22T04:51:41;19.50;99.90
62998;DHT22;55949;52.590;7.330;2023-06-22T04:52:42;19.50;99.90
62998;DHT22;55949;52.590;7.330;2023-06-22T04:53:42;19.50;99.90
62998;DHT22;55949;52.590;7.330;2023-06-22T04:54:43;19.40;99.90
62998;DHT22;55949;52.590;7.330;2023-06-22T04:55:55;19.40;99.90
62998;DHT22;55949;52.590;7.330;2023-06-22T04:56:56;19.40;99.90
62998;DHT22;55949;52.590;7.330;2023-06-22T04:57:56;19.30;99.90
62998;DHT22;55949;52.590;7.330;2023-06-22T04:59:04;19.20;99.90
62998;DHT22;55949;52.590;7.330;2023-06-22T05:00:05;19.30;99.90
62998;DHT22;55949;52.590;7.330;2023-06-22T05:01:12;19.30;99.90
62998;DHT22;55949;52.590;7.330;2023-06-22T05:02:13;19.30;99.90
62998;DHT22;55949;52.590;7.330;2023-06-22T05:03:14;19.30;99.90
62998;DHT22;55949;52.590;7.330;2023-06-22T05:04:18;19.30;99.90
62998;DHT22;55949;52.590;7.330;2023-06-22T05:05:20;19.30;99.90
62998;DHT22;55949;52.590;7.330;2023-06-22T05:06:23;19.20;99.90
62998;DHT22;55949;52.590;7.330;2023-06-22T05:07:27;19.20;99.90
62998;DHT22;55949;52.590;7.330;2023-06-22T05:08:27;19.20;99.90
62998;DHT22;55949;52.590;7.330;2023-06-22T05:09:29;19.30;99.90
62998;DHT22;55949;52.590;7.330;2023-06-22T05:10:29;19.40;99.90
62998;DHT22;55949;52.590;7.330;2023-06-22T05:11:30;19.40;99.90
62998;DHT22;55949;52.590;7.330;2023-06-22T05:12:31;19.30;99.90
62998;DHT22;55949;52.590;7.330;2023-06-22T05:13:32;19.40;99.90
62998;DHT22;55949;52.590;7.330;2023-06-22T05:14:33;19.40;99.90
62998;DHT22;55949;52.590;7.330;2023-06-22T05:15:33;19.40;99.90
62998;DHT22;55949;52.590;7.330;2023-06-22T05:16:42;19.40;99.90
62998;DHT22;55949;52.590;7.330;2023-06-22T05:17:43;19.50;99.90
62998;DHT22;55949;52.590;7.330;2023-06-22T05:18:45;19.50;99.90
62998;DHT22;55949;52.590;7.330;2023-06-22T05:19:46;19.50;99.90
62998;DHT22;55949;52.590;7.330;2023-06-22T05:20:49;19.50;99.90
62998;DHT22;55949;52.590;7.330;2023-06-22T05:21:50;19.60;99.90
62998;DHT22;55949;52.590;7.330;2023-06-22T05:22:50;19.60;99.90
62998;DHT22;55949;52.590;7.330;2023-06-22T05:23:51;19.70;99.90
62998;DHT22;55949;52.590;7.330;2023-06-22T05:24:52;19.80;99.90
62998;DHT22;55949;52.590;7.330;2023-06-22T05:25:53;20.00;99.90
62998;DHT22;55949;52.590;7.330;2023-06-22T05:26:55;20.00;99.90
62998;DHT22;55949;52.590;7.330;2023-06-22T05:27:55;20.00;99.90
62998;DHT22;55949;52.590;7.330;2023-06-22T05:28:56;20.00;99.90
62998;DHT22;55949;52.590;7.330;2023-06-22T05:29:57;20.00;99.90
62998;DHT22;55949;52.590;7.330;2023-06-22T05:30:57;19.90;99.90
62998;DHT22;55949;52.590;7.330;2023-06-22T05:31:58;20.00;99.90
62998;DHT22;55949;52.590;7.330;2023-06-22T05:32:59;20.00;99.90
62998;DHT22;55949;52.590;7.330;2023-06-22T05:34:00;20.00;99.90
62998;DHT22;55949;52.590;7.330;2023-06-22T05:35:01;20.00;99.90
62998;DHT22;55949;52.590;7.330;2023-06-22T05:36:02;20.10;99.90
62998;DHT22;55949;52.590;7.330;2023-06-22T05:37:03;20.10;99.90
62998;DHT22;55949;52.590;7.330;2023-06-22T05:38:04;20.10;99.90
62998;DHT22;55949;52.590;7.330;2023-06-22T05:39:11;20.30;99.90
62998;DHT22;55949;52.590;7.330;2023-06-22T05:40:13;20.30;99.90
62998;DHT22;55949;52.590;7.330;2023-06-22T05:41:14;20.40;99.90
62998;DHT22;55949;52.590;7.330;2023-06-22T05:42:14;20.50;99.90
62998;DHT22;55949;52.590;7.330;2023-06-22T05:43:15;20.50;99.90
62998;DHT22;55949;52.590;7.330;2023-06-22T05:44:16;20.60;99.90
62998;DHT22;55949;52.590;7.330;2023-06-22T05:45:16;20.70;99.90
62998;DHT22;55949;52.590;7.330;2023-06-22T05:46:18;20.70;99.90
62998;DHT22;55949;52.590;7.330;2023-06-22T05:47:19;20.70;99.90
62998;DHT22;55949;52.590;7.330;2023-06-22T05:48:19;20.70;99.90
62998;DHT22;55949;52.590;7.330;2023-06-22T05:49:20;20.80;99.90
62998;DHT22;55949;52.590;7.330;2023-06-22T05:50:22;20.70;99.90
62998;DHT22;55949;52.590;7.330;2023-06-22T05:51:23;20.80;99.90
62998;DHT22;55949;52.590;7.330;2023-06-22T05:52:23;20.80;99.90
62998;DHT22;55949;52.590;7.330;2023-06-22T05:53:24;20.90;99.90
62998;DHT22;55949;52.590;7.330;2023-06-22T05:54:25;20.90;99.90
62998;DHT22;55949;52.590;7.330;2023-06-22T05:55:26;21.00;99.90
62998;DHT22;55949;52.590;7.330;2023-06-22T05:56:26;21.00;99.90
62998;DHT22;55949;52.590;7.330;2023-06-22T05:57:27;21.00;99.90
62998;DHT22;55949;52.590;7.330;2023-06-22T05:58:28;21.00;99.90
62998;DHT22;55949;52.590;7.330;2023-06-22T05:59:28;21.10;99.90
62998;DHT22;55949;52.590;7.330;2023-06-22T06:00:29;21.10;99.90
62998;DHT22;55949;52.590;7.330;2023-06-22T06:01:30;21.20;99.90
62998;DHT22;55949;52.590;7.330;2023-06-22T06:02:34;21.20;99.90
62998;DHT22;55949;52.590;7.330;2023-06-22T06:03:36;21.20;99.90
62998;DHT22;55949;52.590;7.330;2023-06-22T06:04:41;21.20;99.90
62998;DHT22;55949;52.590;7.330;2023-06-22T06:05:42;21.20;99.90
62998;DHT22;55949;52.590;7.330;2023-06-22T06:06:43;21.20;99.90
62998;DHT22;55949;52.590;7.330;2023-06-22T06:07:44;21.20;99.90
62998;DHT22;55949;52.590;7.330;2023-06-22T06:08:45;21.20;99.90
62998;DHT22;55949;52.590;7.330;2023-06-22T06:09:46;21.20;99.90
62998;DHT22;55949;52.590;7.330;2023-06-22T06:10:48;21.30;99.90
62998;DHT22;55949;52.590;7.330;2023-06-22T06:11:49;21.40;99.90
62998;DHT22;55949;52.590;7.330;2023-06-22T06:12:49;21.40;99.90
62998;DHT22;55949;52.590;7.330;2023-06-22T06:13:50;21.50;99.90
62998;DHT22;55949;52.590;7.330;2023-06-22T06:14:51;21.50;99.90
62998;DHT22;55949;52.590;7.330;2023-06-22T06:15:53;21.50;99.90
62998;DHT22;55949;52.590;7.330;2023-06-22T06:16:55;21.60;99.90
62998;DHT22;55949;52.590;7.330;2023-06-22T06:17:56;21.70;99.90
62998;DHT22;55949;52.590;7.330;2023-06-22T06:18:56;21.80;99.90
62998;DHT22;55949;52.590;7.330;2023-06-22T06:19:59;21.80;99.90
62998;DHT22;55949;52.590;7.330;2023-06-22T06:21:00;21.80;99.90
62998;DHT22;55949;52.590;7.330;2023-06-22T06:22:00;21.80;99.90
62998;DHT22;55949;52.590;7.330;2023-06-22T06:23:01;21.80;99.90
62998;DHT22;55949;52.590;7.330;2023-06-22T06:24:02;21.80;99.90
62998;DHT22;55949;52.590;7.330;2023-06-22T06:25:02;21.70;99.90
62998;DHT22;55949;52.590;7.330;2023-06-22T06:26:03;21.70;99.90
62998;DHT22;55949;52.590;7.330;2023-06-22T06:27:07;21.70;99.90
62998;DHT22;55949;52.590;7.330;2023-06-22T06:28:08;21.70;99.90
62998;DHT22;55949;52.590;7.330;2023-06-22T06:29:09;21.70;99.90
62998;DHT22;55949;52.590;7.330;2023-06-22T06:30:10;21.70;99.90
62998;DHT22;55949;52.590;7.330;2023-06-22T06:31:11;21.70;99.90
62998;DHT22;55949;52.590;7.330;2023-06-22T06:32:12;21.70;99.90
62998;DHT22;55949;52.590;7.330;2023-06-22T06:33:13;21.80;99.90
62998;DHT22;55949;52.590;7.330;2023-06-22T06:34:13;21.90;99.90
62998;DHT22;55949;52.590;7.330;2023-06-22T06:35:14;21.90;99.90
62998;DHT22;55949;52.590;7.330;2023-06-22T06:36:18;22.00;99.90